Time;durP1;ratioP1;P1;durP2;ratioP2;P2;SDS_P1;SDS_P2;PMS_P1;PMS_P2;Temp;Humidity;BMP_temperature;BMP_pressure;BME280_temperature;BME280_humidity;BME280_pressure;Samples;Min_cycle;Max_cycle;Signal;HPM_P1;HPM_P2
2023/10/15 00:14:18;;;;;;;3.92;2.17;;;18.90;97.60;;;;;;4549414;19;19998;31
2023/10/15 00:15:57;;;;;;;8.10;2.25;;;18.90;97.40;;;;;;4594099;19;20371;-72
2023/10/15 00:17:32;;;;;;;6.63;2.30;;;19.00;97.60;;;;;;4593815;19;20003;-72
2023/10/15 00:19:12;;;;;;;4.88;1.95;;;18.90;97.40;;;;;;4593515;19;20007;-72
2023/10/15 00:20:47;;;;;;;6.47;2.40;;;18.90;97.80;;;;;;4593678;19;20010;-72
2023/10/15 00:22:22;;;;;;;6.90;2.55;;;18.90;97.50;;;;;;4593767;19;20005;-72
2023/10/15 00:23:57;;;;;;;6.55;2.60;;;18.90;97.30;;;;;;4592121;19;20021;-72
2023/10/15 00:25:38;;;;;;;3.60;1.83;;;18.90;97.40;;;;;;4591989;19;20002;-72
2023/10/15 00:27:12;;;;;;;3.70;1.40;;;18.90;97.40;;;;;;4593072;19;20003;-73
2023/10/15 00:28:46;;;;;;;5.47;1.77;;;18.90;97.40;;;;;;4592330;19;20446;-72
2023/10/15 00:30:22;;;;;;;4.25;1.75;;;18.90;97.40;;;;;;4593068;19;20061;-72
2023/10/15 00:31:56;;;;;;;4.85;1.80;;;18.90;97.50;;;;;;4592131;19;20035;-72
2023/10/15 00:33:30;;;;;;;5.95;1.90;;;18.90;97.40;;;;;;4593046;19;20069;-72
2023/10/15 00:35:06;;;;;;;5.43;1.90;;;18.90;97.50;;;;;;4592969;19;20021;-72
2023/10/15 00:36:40;;;;;;;6.70;1.80;;;18.90;97.40;;;;;;4592307;19;20091;-72
2023/10/15 00:38:19;;;;;;;4.97;1.70;;;18.90;97.30;;;;;;4593235;19;20436;-72
2023/10/15 00:39:54;;;;;;;3.20;1.45;;;18.90;97.30;;;;;;4593550;19;20006;-72
2023/10/15 00:41:28;;;;;;;5.10;1.70;;;18.90;97.20;;;;;;4591964;19;20011;-72
2023/10/15 00:43:03;;;;;;;5.60;1.88;;;18.90;97.10;;;;;;4593221;19;20011;-72
2023/10/15 00:44:39;;;;;;;5.28;1.52;;;18.90;97.30;;;;;;4592871;19;20027;-72
2023/10/15 00:46:17;;;;;;;4.80;1.80;;;18.80;97.10;;;;;;4593416;19;20445;-72
2023/10/15 00:48:03;;;;;;;5.93;1.33;;;18.90;97.20;;;;;;4591826;19;20011;-72
2023/10/15 00:49:39;;;;;;;4.45;1.52;;;18.80;97.20;;;;;;4592958;19;20316;-72
2023/10/15 00:51:20;;;;;;;5.38;1.75;;;18.90;97.30;;;;;;4593384;19;19998;-72
2023/10/15 00:52:57;;;;;;;4.57;1.67;;;18.90;97.20;;;;;;4592080;19;20010;-72
2023/10/15 00:54:34;;;;;;;5.75;1.65;;;18.80;97.20;;;;;;4592407;19;20006;-72
2023/10/15 00:56:11;;;;;;;5.38;1.40;;;18.80;97.10;;;;;;4592993;19;20074;-72
2023/10/15 00:57:49;;;;;;;5.20;1.60;;;18.90;97.20;;;;;;4591888;19;20023;-72
2023/10/15 00:59:43;;;;;;;4.00;1.30;;;18.90;97.20;;;;;;4592760;19;20007;-72
2023/10/15 01:01:22;;;;;;;4.05;1.38;;;18.80;97.30;;;;;;4591654;19;20006;-72
2023/10/15 01:02:57;;;;;;;6.80;2.35;;;18.80;96.90;;;;;;4592414;19;20027;-72
2023/10/15 01:04:41;;;;;;;7.10;2.42;;;18.80;97.10;;;;;;4591796;19;20066;-72
2023/10/15 01:08:16;;;;;;;4.80;1.83;;;18.80;97.10;;;;;;4591010;19;20098;-72
2023/10/15 01:09:52;;;;;;;6.28;1.67;;;18.80;97.00;;;;;;4590968;19;20031;-72
2023/10/15 01:11:28;;;;;;;5.90;1.83;;;18.80;97.10;;;;;;4591602;19;19994;-72
2023/10/15 01:13:10;;;;;;;5.03;1.67;;;18.80;97.00;;;;;;4591860;19;19999;-72
2023/10/15 01:14:45;;;;;;;5.80;1.92;;;18.80;97.10;;;;;;4591014;19;20450;-72
2023/10/15 01:16:21;;;;;;;4.38;1.95;;;18.80;97.00;;;;;;4591675;19;20007;-72
2023/10/15 01:18:01;;;;;;;7.75;2.00;;;18.80;96.90;;;;;;4592344;19;20347;-72
2023/10/15 01:19:37;;;;;;;4.25;1.70;;;18.80;96.90;;;;;;4590453;19;20010;-72
2023/10/15 01:21:16;;;;;;;5.15;1.63;;;18.80;97.10;;;;;;4591208;19;20011;-72
2023/10/15 01:22:53;;;;;;;5.75;1.75;;;18.80;97.20;;;;;;4591304;19;20032;-72
2023/10/15 01:24:32;;;;;;;5.00;1.48;;;18.80;97.10;;;;;;4590169;19;20038;-72
2023/10/15 01:26:23;;;;;;;5.53;1.90;;;18.80;97.20;;;;;;4590220;19;20082;-72
2023/10/15 01:28:00;;;;;;;4.38;1.60;;;18.80;97.20;;;;;;4589983;19;20272;-72
2023/10/15 01:29:41;;;;;;;3.92;1.50;;;18.80;97.20;;;;;;4590212;19;20003;-72
2023/10/15 01:31:15;;;;;;;6.38;1.67;;;18.80;97.20;;;;;;4590159;19;20006;-72
2023/10/15 01:32:50;;;;;;;5.88;1.40;;;18.80;97.20;;;;;;4591013;19;20070;-72
2023/10/15 01:34:25;;;;;;;3.90;1.17;;;18.80;97.30;;;;;;4591015;19;20058;-72
2023/10/15 01:36:06;;;;;;;3.72;1.35;;;18.80;97.20;;;;;;4589786;19;20019;-72
2023/10/15 01:37:45;;;;;;;4.72;1.75;;;18.80;97.20;;;;;;4589877;19;19998;-72
2023/10/15 01:39:37;;;;;;;3.92;1.80;;;18.80;97.20;;;;;;4590962;19;20006;-72
2023/10/15 01:41:16;;;;;;;4.35;1.65;;;18.80;97.20;;;;;;4591361;19;20006;-72
2023/10/15 01:42:54;;;;;;;4.68;1.60;;;18.70;97.20;;;;;;4590945;19;20066;-72
2023/10/15 01:44:32;;;;;;;4.70;1.60;;;18.80;97.40;;;;;;4589432;19;20003;-72
2023/10/15 01:46:10;;;;;;;4.03;1.40;;;18.80;97.40;;;;;;4590881;19;20007;-72
2023/10/15 01:49:34;;;;;;;7.13;1.70;;;18.80;97.40;;;;;;4590654;19;20451;-72
2023/10/15 01:51:08;;;;;;;5.82;1.83;;;18.70;97.20;;;;;;4591118;19;20359;-72
2023/10/15 01:52:47;;;;;;;4.75;1.52;;;18.70;97.20;;;;;;4590804;19;20016;-72
2023/10/15 01:54:22;;;;;;;5.18;1.40;;;18.70;97.50;;;;;;4590625;19;20025;-72
2023/10/15 01:55:59;;;;;;;4.28;1.13;;;18.70;97.40;;;;;;4590750;19;20009;-72
2023/10/15 01:57:36;;;;;;;3.92;1.55;;;18.70;97.30;;;;;;4590994;19;20016;-72
2023/10/15 01:59:12;;;;;;;4.55;1.50;;;18.70;97.30;;;;;;4590777;19;20007;-72
2023/10/15 02:00:50;;;;;;;4.22;1.70;;;18.70;97.30;;;;;;4590898;19;20306;-72
2023/10/15 02:02:29;;;;;;;6.78;1.83;;;18.70;97.40;;;;;;4589328;19;20013;-72
2023/10/15 02:04:05;;;;;;;4.80;1.88;;;18.70;97.30;;;;;;4589428;19;20062;-72
2023/10/15 02:05:41;;;;;;;4.18;1.58;;;18.70;97.30;;;;;;4589076;19;20013;-72
2023/10/15 02:07:20;;;;;;;4.55;2.00;;;18.70;97.50;;;;;;4590063;19;20007;-72
2023/10/15 02:08:56;;;;;;;4.82;2.13;;;18.70;97.50;;;;;;4590623;19;20006;-72
2023/10/15 02:10:30;;;;;;;6.70;2.15;;;18.70;97.40;;;;;;4590759;19;19999;-72
2023/10/15 02:12:07;;;;;;;4.50;1.48;;;18.70;97.40;;;;;;4590749;19;20099;-72
2023/10/15 02:13:46;;;;;;;5.60;1.85;;;18.70;97.40;;;;;;4590546;19;20399;-72
2023/10/15 02:15:22;;;;;;;5.57;1.30;;;18.70;97.50;;;;;;4589573;19;20034;-72
2023/10/15 02:16:59;;;;;;;6.45;2.20;;;18.70;97.60;;;;;;4589188;19;20002;-72
2023/10/15 02:18:35;;;;;;;4.95;1.38;;;18.70;97.40;;;;;;4590398;19;20031;-72
2023/10/15 02:20:14;;;;;;;5.18;1.65;;;18.70;97.60;;;;;;4590267;19;20082;-72
2023/10/15 02:21:52;;;;;;;4.72;1.40;;;18.70;97.70;;;;;;4590403;19;20478;-72
2023/10/15 02:23:32;;;;;;;5.75;1.88;;;18.70;97.40;;;;;;4590707;19;20298;-72
2023/10/15 02:25:08;;;;;;;4.53;1.58;;;18.70;97.70;;;;;;4589839;19;20015;-72
2023/10/15 02:26:42;;;;;;;5.82;1.70;;;18.70;97.50;;;;;;4589270;19;20017;-72
2023/10/15 02:28:20;;;;;;;5.72;1.75;;;18.70;97.60;;;;;;4590114;19;19999;-72
2023/10/15 02:29:54;;;;;;;5.25;1.60;;;18.70;97.50;;;;;;4590377;19;20032;-72
2023/10/15 02:31:30;;;;;;;7.05;1.83;;;18.70;97.50;;;;;;4590205;19;20006;-72
2023/10/15 02:33:06;;;;;;;5.75;1.58;;;18.70;97.60;;;;;;4590297;19;20436;-72
2023/10/15 02:34:42;;;;;;;4.97;1.38;;;18.70;97.50;;;;;;4590217;19;20025;-72
2023/10/15 02:36:17;;;;;;;5.40;2.28;;;18.70;97.50;;;;;;4594947;19;20006;-72
2023/10/15 02:37:58;;;;;;;4.55;1.60;;;18.70;97.70;;;;;;4594816;19;20017;-72
2023/10/15 02:39:36;;;;;;;6.40;1.90;;;18.70;97.80;;;;;;4593456;19;20011;-72
2023/10/15 02:41:10;;;;;;;6.18;1.85;;;18.70;97.50;;;;;;4594564;19;20011;-72
2023/10/15 02:42:53;;;;;;;7.32;1.55;;;18.70;97.50;;;;;;4594959;19;20006;-72
2023/10/15 02:44:32;;;;;;;5.65;1.63;;;18.70;97.50;;;;;;4594220;19;20006;-72
2023/10/15 02:46:36;;;;;;;4.53;1.40;;;18.70;97.50;;;;;;4593318;19;20010;-72
2023/10/15 02:48:19;;;;;;;4.80;1.63;;;18.70;97.50;;;;;;4594704;19;20003;-72
2023/10/15 02:50:02;;;;;;;7.45;2.10;;;18.70;97.40;;;;;;4593175;19;20010;-72
2023/10/15 02:51:36;;;;;;;4.60;1.80;;;18.70;97.40;;;;;;4594539;19;20423;-72
2023/10/15 02:53:11;;;;;;;6.57;1.88;;;18.60;97.40;;;;;;4594648;19;20006;-72
2023/10/15 02:54:48;;;;;;;7.35;2.15;;;18.70;97.40;;;;;;4593881;19;20002;-72
2023/10/15 02:56:22;;;;;;;7.60;2.72;;;18.60;97.40;;;;;;4594620;19;20013;-72
2023/10/15 02:58:01;;;;;;;8.55;3.40;;;18.60;97.50;;;;;;4593045;19;20070;-72
2023/10/15 02:59:37;;;;;;;7.85;3.00;;;18.60;97.40;;;;;;4592999;19;20319;-72
2023/10/15 03:01:19;;;;;;;9.68;3.28;;;18.60;97.50;;;;;;4594377;19;20394;-72
2023/10/15 03:02:54;;;;;;;7.28;2.60;;;18.70;97.50;;;;;;4594180;19;20039;-72
2023/10/15 03:04:38;;;;;;;5.55;2.08;;;18.60;97.50;;;;;;4592414;19;20446;-72
2023/10/15 03:06:18;;;;;;;5.35;1.52;;;18.70;97.60;;;;;;4593896;19;20006;-72
2023/10/15 03:07:55;;;;;;;4.28;1.60;;;18.70;97.60;;;;;;4592900;19;20036;-72
2023/10/15 03:09:31;;;;;;;4.38;1.70;;;18.70;97.50;;;;;;4594354;19;20006;-72
2023/10/15 03:11:12;;;;;;;4.93;2.03;;;18.70;97.60;;;;;;4594074;19;20465;-72
2023/10/15 03:12:49;;;;;;;6.72;1.98;;;18.60;97.50;;;;;;4594380;19;20011;-72
2023/10/15 03:14:25;;;;;;;4.72;1.90;;;18.60;97.50;;;;;;4593370;19;20015;-72
2023/10/15 03:16:07;;;;;;;5.18;1.58;;;18.60;97.50;;;;;;4594268;19;20031;-72
2023/10/15 03:17:46;;;;;;;3.58;1.98;;;18.60;97.60;;;;;;4593271;19;20019;-72
2023/10/15 03:19:23;;;;;;;4.13;1.35;;;18.60;97.50;;;;;;4593943;19;20006;-72
2023/10/15 03:21:19;;;;;;;4.82;1.42;;;18.60;97.50;;;;;;4592545;19;20014;-72
2023/10/15 03:22:58;;;;;;;5.03;1.42;;;18.60;97.50;;;;;;4594200;19;20031;-72
2023/10/15 03:24:34;;;;;;;3.92;1.20;;;18.70;97.60;;;;;;4591987;19;20014;-72
2023/10/15 03:26:09;;;;;;;3.90;1.55;;;18.60;97.60;;;;;;4593670;19;19998;-72
2023/10/15 03:27:47;;;;;;;5.32;1.83;;;18.60;97.60;;;;;;4591128;19;20054;-73
2023/10/15 03:29:23;;;;;;;6.45;1.70;;;18.60;97.50;;;;;;4592582;19;20441;-73
2023/10/15 03:30:57;;;;;;;4.05;1.30;;;18.60;97.60;;;;;;4593765;19;20017;-74
2023/10/15 03:32:41;;;;;;;4.63;2.05;;;18.60;97.70;;;;;;4593630;19;20418;-72
2023/10/15 03:34:22;;;;;;;6.55;1.65;;;18.60;97.70;;;;;;4592121;19;20014;-72
2023/10/15 03:35:59;;;;;;;5.50;1.65;;;18.60;97.60;;;;;;4593597;19;20003;-72
2023/10/15 03:37:45;;;;;;;7.00;1.67;;;18.70;97.70;;;;;;4592676;19;20031;-72
2023/10/15 03:39:54;;;;;;;3.22;1.48;;;18.70;97.50;;;;;;4593465;19;20107;-72
2023/10/15 03:41:26;;;;;;;3.80;1.35;;;18.80;97.40;;;;;;4591639;19;20455;-72
2023/10/15 03:45:27;;;;;;;4.93;1.40;;;18.80;97.20;;;;;;4230638;19;7344270;-72
2023/10/15 03:47:05;;;;;;;6.13;1.90;;;18.80;97.40;;;;;;4613254;19;20002;-73
2023/10/15 03:48:47;;;;;;;6.18;1.85;;;18.80;97.40;;;;;;4612341;19;20006;-72
2023/10/15 03:50:28;;;;;;;3.97;1.20;;;18.80;97.50;;;;;;4612711;19;20003;-71
2023/10/15 03:52:14;;;;;;;5.55;1.90;;;18.80;97.50;;;;;;4612522;19;20302;-72
2023/10/15 03:53:52;;;;;;;5.35;1.67;;;18.90;97.50;;;;;;4613980;19;20065;-74
2023/10/15 03:55:27;;;;;;;6.43;1.90;;;18.80;97.50;;;;;;4613158;19;20010;-72
2023/10/15 03:57:02;;;;;;;3.95;1.20;;;18.80;97.50;;;;;;4614783;19;20006;-72
2023/10/15 03:58:36;;;;;;;4.85;1.60;;;18.90;97.40;;;;;;4614405;19;20054;-73
2023/10/15 04:00:26;;;;;;;6.63;1.70;;;18.90;97.50;;;;;;4614587;19;20019;-74
2023/10/15 04:02:09;;;;;;;3.60;1.30;;;18.90;97.50;;;;;;4613326;19;20006;-73
2023/10/15 04:03:51;;;;;;;5.63;1.77;;;18.90;97.40;;;;;;4612913;19;20014;-72
2023/10/15 04:05:29;;;;;;;5.07;1.90;;;18.90;97.40;;;;;;4612525;19;20329;-73
2023/10/15 04:07:30;;;;;;;6.05;1.70;;;18.90;97.30;;;;;;4612941;19;20006;-72
2023/10/15 04:10:38;;;;;;;5.60;1.80;;;18.90;97.30;;;;;;4614078;19;20010;-73
2023/10/15 04:12:14;;;;;;;4.65;1.70;;;18.90;97.30;;;;;;4614155;19;20007;-73
2023/10/15 04:13:49;;;;;;;5.22;1.75;;;18.90;97.30;;;;;;4614158;19;20006;-72
2023/10/15 04:15:24;;;;;;;4.05;1.60;;;18.90;97.30;;;;;;4612781;19;20478;-72
2023/10/15 04:17:00;;;;;;;6.93;1.90;;;18.90;97.20;;;;;;4614021;19;20010;-72
2023/10/15 04:18:35;;;;;;;4.68;1.30;;;18.90;97.20;;;;;;4613871;19;20017;-72
2023/10/15 04:20:09;;;;;;;4.15;1.90;;;18.90;97.20;;;;;;4613993;19;19999;-71
2023/10/15 04:21:46;;;;;;;9.07;5.30;;;18.90;97.20;;;;;;4614222;19;20010;-72
2023/10/15 04:23:34;;;;;;;17.60;8.85;;;18.90;97.30;;;;;;4612824;19;20019;-72
2023/10/15 04:25:08;;;;;;;12.30;5.95;;;18.90;97.40;;;;;;4612096;19;20010;-72
2023/10/15 04:26:48;;;;;;;13.13;6.65;;;19.00;97.40;;;;;;4614151;19;20015;-72
2023/10/15 04:28:25;;;;;;;15.23;7.95;;;19.10;97.30;;;;;;4614122;19;20181;-72
2023/10/15 04:30:01;;;;;;;19.27;9.60;;;19.10;97.10;;;;;;4613795;19;20006;-72
2023/10/15 04:31:37;;;;;;;10.88;5.25;;;19.20;97.20;;;;;;4613778;19;20297;-72
2023/10/15 04:33:13;;;;;;;8.75;3.63;;;19.20;97.10;;;;;;4613754;19;20003;-72
2023/10/15 04:34:47;;;;;;;7.25;3.90;;;19.20;97.20;;;;;;4611457;19;20011;-72
2023/10/15 04:36:25;;;;;;;6.90;3.08;;;19.20;97.00;;;;;;4613624;19;20006;-72
2023/10/15 04:37:59;;;;;;;5.18;1.80;;;19.20;97.10;;;;;;4613672;19;20003;-72
2023/10/15 04:39:35;;;;;;;5.00;1.90;;;19.20;96.80;;;;;;4613852;19;20008;-72
2023/10/15 04:41:21;;;;;;;3.85;1.75;;;19.20;96.90;;;;;;4613561;19;20318;-72
2023/10/15 04:42:59;;;;;;;4.97;1.77;;;19.20;96.80;;;;;;4612519;19;20357;-72
2023/10/15 04:44:33;;;;;;;5.05;1.65;;;19.20;96.90;;;;;;4612453;19;20014;-72
2023/10/15 04:46:09;;;;;;;7.35;2.42;;;19.20;96.90;;;;;;4613681;19;20350;-72
2023/10/15 04:47:43;;;;;;;5.20;2.20;;;19.20;96.90;;;;;;4613571;19;20443;-72
2023/10/15 04:49:17;;;;;;;5.10;1.67;;;19.20;96.70;;;;;;4613067;19;20077;-72
2023/10/15 04:50:53;;;;;;;6.15;1.85;;;19.10;96.80;;;;;;4612225;19;20482;-72
2023/10/15 04:52:28;;;;;;;5.03;1.85;;;19.10;97.20;;;;;;4613191;19;20066;-72
2023/10/15 04:54:02;;;;;;;5.43;2.00;;;19.10;96.80;;;;;;4613204;19;20377;-72
2023/10/15 04:55:41;;;;;;;5.43;1.98;;;19.20;97.10;;;;;;4608046;19;20010;-72
2023/10/15 04:57:16;;;;;;;5.03;1.92;;;19.20;97.00;;;;;;4595182;19;20456;-72
2023/10/15 04:58:50;;;;;;;5.00;2.10;;;19.10;96.90;;;;;;4595616;19;19998;-72
2023/10/15 05:00:25;;;;;;;6.28;2.28;;;19.10;96.70;;;;;;4595252;19;20028;-72
2023/10/15 05:02:00;;;;;;;7.70;2.40;;;19.10;96.90;;;;;;4595272;19;19999;-72
2023/10/15 05:03:34;;;;;;;5.72;2.65;;;19.10;96.90;;;;;;4595533;19;20011;-72
2023/10/15 05:05:11;;;;;;;5.05;2.92;;;19.00;96.80;;;;;;4592425;19;20036;-72
2023/10/15 05:06:45;;;;;;;4.85;2.80;;;19.00;96.90;;;;;;4595196;19;20017;-72
2023/10/15 05:08:19;;;;;;;5.60;2.17;;;19.00;96.90;;;;;;4595112;19;20062;-72
2023/10/15 05:10:00;;;;;;;5.35;2.40;;;19.10;96.80;;;;;;4595206;19;20006;-72
2023/10/15 05:11:34;;;;;;;7.15;2.70;;;19.10;96.90;;;;;;4594022;19;20002;-72
2023/10/15 05:13:08;;;;;;;7.80;2.28;;;19.10;96.80;;;;;;4594995;19;20080;-72
2023/10/15 05:14:49;;;;;;;6.45;2.17;;;19.10;96.80;;;;;;4594653;19;20010;-72
2023/10/15 05:16:22;;;;;;;9.98;3.25;;;19.10;96.80;;;;;;4593750;19;20017;-72
2023/10/15 05:17:56;;;;;;;5.35;2.22;;;19.20;96.80;;;;;;4593834;19;20003;-72
2023/10/15 05:19:32;;;;;;;4.47;1.77;;;19.20;96.80;;;;;;4594682;19;20002;-72
2023/10/15 05:21:06;;;;;;;4.63;2.17;;;19.20;96.90;;;;;;4594915;19;20005;-72
2023/10/15 05:22:41;;;;;;;5.53;2.05;;;19.20;96.80;;;;;;4595068;19;20009;-72
2023/10/15 05:24:21;;;;;;;5.18;1.92;;;19.20;96.90;;;;;;4594376;19;20006;-72
2023/10/15 05:25:56;;;;;;;8.70;2.45;;;19.20;96.90;;;;;;4594693;19;20457;-72
2023/10/15 05:27:32;;;;;;;9.18;2.33;;;19.20;96.90;;;;;;4594986;19;19999;-72
2023/10/15 05:29:08;;;;;;;5.40;2.33;;;19.20;96.90;;;;;;4595014;19;20029;-71
2023/10/15 05:30:43;;;;;;;6.00;2.42;;;19.20;97.00;;;;;;4594923;19;19998;-71
2023/10/15 05:32:17;;;;;;;7.93;2.70;;;19.20;97.00;;;;;;4594632;19;20006;-72
2023/10/15 05:33:53;;;;;;;6.32;2.33;;;19.20;97.10;;;;;;4594706;19;20028;-72
2023/10/15 05:35:28;;;;;;;6.95;2.47;;;19.10;97.00;;;;;;4593264;19;20006;-71
2023/10/15 05:37:03;;;;;;;5.15;2.00;;;19.10;97.00;;;;;;4594836;19;20013;-72
2023/10/15 05:38:38;;;;;;;6.38;2.15;;;19.10;97.10;;;;;;4593852;19;20369;-72
2023/10/15 05:40:21;;;;;;;6.45;2.63;;;19.10;97.10;;;;;;4593461;19;19998;-72
2023/10/15 05:41:55;;;;;;;6.18;2.30;;;19.10;97.00;;;;;;4593847;19;20006;-72
2023/10/15 05:43:30;;;;;;;5.82;2.38;;;19.10;97.20;;;;;;4594177;19;20014;-72
2023/10/15 05:45:07;;;;;;;5.60;2.60;;;19.10;97.20;;;;;;4593047;19;20436;-72
2023/10/15 05:46:41;;;;;;;8.05;2.45;;;19.10;97.10;;;;;;4594412;19;20007;-72
2023/10/15 05:48:19;;;;;;;5.40;2.00;;;19.10;97.00;;;;;;4594298;19;20310;-72
2023/10/15 05:49:55;;;;;;;5.97;2.47;;;19.00;97.10;;;;;;4594375;19;20010;-72
2023/10/15 05:51:32;;;;;;;6.22;2.15;;;19.10;97.10;;;;;;4594275;19;20021;-72
2023/10/15 05:53:08;;;;;;;5.88;2.08;;;19.00;97.00;;;;;;4594315;19;20018;-71
2023/10/15 05:54:43;;;;;;;5.97;3.00;;;19.00;97.00;;;;;;4593999;19;20295;-72
2023/10/15 05:56:18;;;;;;;5.68;2.63;;;19.00;97.00;;;;;;4593095;19;19995;-72
2023/10/15 05:57:55;;;;;;;6.88;2.97;;;19.00;96.90;;;;;;4594146;19;20071;-72
2023/10/15 05:59:29;;;;;;;9.48;2.47;;;19.00;96.90;;;;;;4594101;19;20006;-72
2023/10/15 06:01:03;;;;;;;7.95;2.97;;;18.90;96.70;;;;;;4594288;19;20018;-72
2023/10/15 06:02:38;;;;;;;7.28;2.40;;;19.00;96.80;;;;;;4593999;19;20010;-72
2023/10/15 06:04:12;;;;;;;7.03;2.80;;;18.90;96.70;;;;;;4593627;19;20007;-72
2023/10/15 06:05:47;;;;;;;8.15;2.55;;;19.00;96.80;;;;;;4594077;19;20005;-72
2023/10/15 06:07:23;;;;;;;5.03;2.28;;;18.90;96.80;;;;;;4592768;19;19999;-71
2023/10/15 06:08:59;;;;;;;6.38;2.03;;;18.90;96.60;;;;;;4592715;19;20008;-72
2023/10/15 06:10:35;;;;;;;10.52;3.50;;;18.90;96.60;;;;;;4594159;19;20021;-72
2023/10/15 06:12:10;;;;;;;8.25;2.50;;;18.90;96.60;;;;;;4594087;19;20066;-72
2023/10/15 06:13:44;;;;;;;6.68;2.30;;;18.90;96.50;;;;;;4593704;19;20003;-72
2023/10/15 06:15:18;;;;;;;8.18;2.95;;;18.90;96.50;;;;;;4592813;19;20290;-72
2023/10/15 06:16:53;;;;;;;7.20;2.03;;;18.90;96.50;;;;;;4593083;19;20436;-72
2023/10/15 06:18:27;;;;;;;7.82;2.00;;;18.90;96.30;;;;;;4592877;19;20034;-72
2023/10/15 06:20:12;;;;;;;6.68;2.30;;;18.90;96.30;;;;;;4593061;19;20421;-72
2023/10/15 06:21:49;;;;;;;5.03;2.67;;;18.90;96.30;;;;;;4591498;19;20035;-71
2023/10/15 06:23:23;;;;;;;7.68;2.30;;;18.90;96.30;;;;;;4592662;19;20417;-72
2023/10/15 06:24:58;;;;;;;6.50;2.92;;;18.80;96.10;;;;;;4590971;19;20333;-72
2023/10/15 06:26:33;;;;;;;4.15;1.75;;;18.80;96.30;;;;;;4593648;19;20002;-72
2023/10/15 06:28:13;;;;;;;4.20;1.30;;;18.80;96.30;;;;;;4593608;19;20005;-72
2023/10/15 06:29:47;;;;;;;6.60;1.98;;;18.80;96.40;;;;;;4593483;19;20507;-72
2023/10/15 06:31:23;;;;;;;4.72;1.60;;;18.80;96.30;;;;;;4593401;19;20077;-71
2023/10/15 06:32:57;;;;;;;6.95;2.50;;;18.80;96.30;;;;;;4593364;19;20302;-72
2023/10/15 06:34:31;;;;;;;6.20;2.35;;;18.80;96.20;;;;;;4592986;19;20017;-72
2023/10/15 06:36:07;;;;;;;4.57;1.83;;;18.80;96.20;;;;;;4592168;19;19999;-72
2023/10/15 06:37:42;;;;;;;5.80;2.25;;;18.70;96.30;;;;;;4593482;19;19998;-72
2023/10/15 06:39:16;;;;;;;6.25;1.95;;;18.70;96.10;;;;;;4593333;19;20037;-72
2023/10/15 06:40:52;;;;;;;7.75;2.38;;;18.70;96.00;;;;;;4593127;19;20011;-72
2023/10/15 06:42:26;;;;;;;7.43;2.08;;;18.70;96.00;;;;;;4593449;19;20002;-72
2023/10/15 06:44:00;;;;;;;5.20;2.38;;;18.80;96.00;;;;;;4593081;19;20003;-72
2023/10/15 06:45:36;;;;;;;6.63;1.83;;;18.80;96.20;;;;;;4592267;19;20017;-71
2023/10/15 06:47:13;;;;;;;4.43;2.00;;;18.70;95.90;;;;;;4592916;19;20046;-71
2023/10/15 06:48:47;;;;;;;3.13;1.40;;;18.80;95.70;;;;;;4593032;19;20025;-71
2023/10/15 06:50:23;;;;;;;5.13;2.03;;;18.80;95.60;;;;;;4593130;19;20325;-72
2023/10/15 06:51:58;;;;;;;5.63;2.30;;;18.80;95.50;;;;;;4591781;19;20002;-72
2023/10/15 06:53:33;;;;;;;5.00;1.70;;;18.80;95.40;;;;;;4592655;19;20425;-72
2023/10/15 06:55:08;;;;;;;7.25;2.70;;;18.80;95.60;;;;;;4590469;19;20078;-72
2023/10/15 06:56:42;;;;;;;7.05;2.58;;;18.90;95.50;;;;;;4591445;19;20097;-72
2023/10/15 06:58:16;;;;;;;5.05;1.90;;;18.90;95.40;;;;;;4592479;19;20018;-72
2023/10/15 06:59:52;;;;;;;8.40;3.20;;;19.00;95.60;;;;;;4592940;19;20006;-71
2023/10/15 07:01:27;;;;;;;5.13;2.42;;;19.00;95.30;;;;;;4591297;19;20007;-71
2023/10/15 07:03:01;;;;;;;6.63;2.58;;;19.00;95.10;;;;;;4592757;19;20342;-72
2023/10/15 07:04:36;;;;;;;6.50;2.40;;;19.10;95.30;;;;;;4592108;19;20308;-72
2023/10/15 07:06:10;;;;;;;4.88;1.85;;;19.20;95.10;;;;;;4592612;19;20433;-71
2023/10/15 07:07:45;;;;;;;4.65;1.98;;;19.20;94.90;;;;;;4592750;19;20025;-70
2023/10/15 07:09:20;;;;;;;5.97;2.22;;;19.20;94.90;;;;;;4592876;19;20028;-70
2023/10/15 07:10:54;;;;;;;5.68;2.50;;;19.30;94.90;;;;;;4592435;19;20074;-70
2023/10/15 07:12:29;;;;;;;5.35;2.10;;;19.30;95.00;;;;;;4592391;19;20002;-71
2023/10/15 07:14:05;;;;;;;6.18;3.33;;;19.40;95.10;;;;;;4591405;19;20365;-71
2023/10/15 07:15:40;;;;;;;7.00;2.53;;;19.40;95.00;;;;;;4591234;19;20002;-71
2023/10/15 07:17:15;;;;;;;7.97;2.35;;;19.40;95.00;;;;;;4592547;19;20417;-71
2023/10/15 07:18:52;;;;;;;7.75;2.58;;;19.40;95.20;;;;;;4591733;19;20070;-71
2023/10/15 07:20:29;;;;;;;5.30;1.92;;;19.40;94.70;;;;;;4592249;19;20097;-71
2023/10/15 07:22:04;;;;;;;5.25;1.85;;;19.40;94.50;;;;;;4592358;19;20013;-71
2023/10/15 07:23:39;;;;;;;4.30;2.00;;;19.40;94.60;;;;;;4591255;19;20006;-71
2023/10/15 07:25:14;;;;;;;4.68;1.50;;;19.50;94.70;;;;;;4591170;19;20011;-71
2023/10/15 07:26:48;;;;;;;5.30;1.98;;;19.50;94.40;;;;;;4592532;19;20002;-71
2023/10/15 07:28:24;;;;;;;6.75;2.70;;;19.50;94.60;;;;;;4590886;19;20024;-71
2023/10/15 07:29:58;;;;;;;4.65;2.00;;;19.50;94.40;;;;;;4591677;19;20086;-71
2023/10/15 07:31:31;;;;;;;4.32;1.60;;;19.50;94.50;;;;;;4592141;19;19998;-71
2023/10/15 07:33:07;;;;;;;4.30;1.95;;;19.50;94.30;;;;;;4592304;19;20016;-71
2023/10/15 07:34:42;;;;;;;5.25;2.58;;;19.60;93.90;;;;;;4591687;19;20014;-71
2023/10/15 07:36:16;;;;;;;6.20;1.80;;;19.50;94.20;;;;;;4592327;19;20003;-72
2023/10/15 07:37:52;;;;;;;4.18;1.77;;;19.50;94.10;;;;;;4592268;19;20397;-72
2023/10/15 07:39:31;;;;;;;6.00;3.45;;;19.50;94.30;;;;;;4591986;19;20066;-73
2023/10/15 07:41:06;;;;;;;7.05;2.13;;;19.50;94.30;;;;;;4591934;19;20021;-71
2023/10/15 07:42:41;;;;;;;4.97;2.08;;;19.50;94.30;;;;;;4592032;19;20009;-72
2023/10/15 07:44:15;;;;;;;4.13;1.70;;;19.50;94.30;;;;;;4590848;19;20017;-72
2023/10/15 07:45:48;;;;;;;5.55;1.73;;;19.50;94.30;;;;;;4591732;19;20007;-71
2023/10/15 07:47:25;;;;;;;5.32;2.15;;;19.50;94.00;;;;;;4591377;19;20024;-72
2023/10/15 07:49:00;;;;;;;5.15;2.13;;;19.50;94.20;;;;;;4591683;19;20010;-72
2023/10/15 07:50:35;;;;;;;7.40;2.60;;;19.40;94.20;;;;;;4592294;19;19999;-71
2023/10/15 07:52:11;;;;;;;6.15;2.63;;;19.40;94.20;;;;;;4591891;19;20018;-71
2023/10/15 07:53:44;;;;;;;8.98;3.28;;;19.40;94.50;;;;;;4592177;19;19998;-72
2023/10/15 07:55:18;;;;;;;5.45;1.95;;;19.40;94.20;;;;;;4591050;19;20009;-71
2023/10/15 07:56:54;;;;;;;8.88;4.30;;;19.40;94.30;;;;;;4591765;19;20073;-71
2023/10/15 07:58:28;;;;;;;9.60;4.05;;;19.40;94.20;;;;;;4592106;19;19998;-72
2023/10/15 08:00:04;;;;;;;5.25;1.98;;;19.30;94.20;;;;;;4591829;19;20009;-73
2023/10/15 08:01:40;;;;;;;5.50;1.65;;;19.30;94.20;;;;;;4591864;19;20381;-71
2023/10/15 08:03:16;;;;;;;5.68;2.50;;;19.30;94.10;;;;;;4592013;19;20002;-71
2023/10/15 08:04:55;;;;;;;6.55;2.42;;;19.30;94.50;;;;;;4591032;19;20003;-72
2023/10/15 08:06:33;;;;;;;5.53;1.75;;;19.30;94.10;;;;;;4590436;19;20007;-71
2023/10/15 08:08:07;;;;;;;6.22;2.25;;;19.30;94.10;;;;;;4591356;19;20007;-72
2023/10/15 08:09:41;;;;;;;4.25;1.38;;;19.30;94.10;;;;;;4591972;19;20003;-69
2023/10/15 08:11:17;;;;;;;5.13;1.83;;;19.30;94.00;;;;;;4591616;19;20021;-71
2023/10/15 08:12:52;;;;;;;4.32;2.08;;;19.30;94.10;;;;;;4591870;19;20003;-71
2023/10/15 08:14:27;;;;;;;4.63;1.77;;;19.20;94.40;;;;;;4591245;19;20062;-71
2023/10/15 08:16:04;;;;;;;4.05;1.60;;;19.20;94.30;;;;;;4591582;19;20028;-71
2023/10/15 08:17:38;;;;;;;4.43;2.00;;;19.30;94.30;;;;;;4591581;19;20003;-71
2023/10/15 08:19:13;;;;;;;4.03;1.70;;;19.20;94.00;;;;;;4591986;19;20024;-71
2023/10/15 08:20:49;;;;;;;4.40;1.52;;;19.20;94.20;;;;;;4591796;19;20010;-71
2023/10/15 08:22:23;;;;;;;5.45;2.33;;;19.20;94.10;;;;;;4591484;19;20021;-71
2023/10/15 08:23:59;;;;;;;4.72;1.98;;;19.20;94.30;;;;;;4591704;19;20006;-71
2023/10/15 08:25:34;;;;;;;4.30;1.63;;;19.20;94.20;;;;;;4589962;19;20010;-71
2023/10/15 08:27:07;;;;;;;4.43;1.58;;;19.20;93.80;;;;;;4591242;19;20003;-71
2023/10/15 08:28:42;;;;;;;4.75;2.15;;;19.20;93.90;;;;;;4591700;19;19995;-71
2023/10/15 08:30:17;;;;;;;6.47;2.38;;;19.20;94.00;;;;;;4591235;19;20006;-71
2023/10/15 08:31:52;;;;;;;6.30;2.50;;;19.20;94.00;;;;;;4594821;19;20471;-71
2023/10/15 08:33:27;;;;;;;4.45;1.63;;;19.20;93.80;;;;;;4596141;19;20019;-71
2023/10/15 08:35:04;;;;;;;4.72;2.10;;;19.20;93.90;;;;;;4594926;19;20089;-71
2023/10/15 08:36:37;;;;;;;4.75;1.85;;;19.20;94.00;;;;;;4595808;19;19999;-71
2023/10/15 08:38:12;;;;;;;4.40;2.45;;;19.10;93.80;;;;;;4595762;19;20002;-72
2023/10/15 08:39:47;;;;;;;5.32;2.20;;;19.00;93.90;;;;;;4595784;19;20036;-70
2023/10/15 08:41:22;;;;;;;6.45;2.72;;;19.00;93.60;;;;;;4595986;19;20410;-72
2023/10/15 08:43:02;;;;;;;5.03;2.00;;;19.00;93.70;;;;;;4594236;19;20005;-71
2023/10/15 08:44:43;;;;;;;4.47;1.85;;;19.00;93.60;;;;;;4593084;19;20018;-71